createdAt,value
2023-01-25T00:00:20.951Z,21.50
2023-01-25T00:01:20.985Z,23.00
2023-01-25T00:02:21.029Z,21.70
2023-01-25T00:03:21.083Z,20.90
2023-01-25T00:04:20.934Z,20.80
2023-01-25T00:05:20.908Z,21.40
2023-01-25T00:06:20.721Z,20.20
2023-01-25T00:07:20.926Z,21.50
2023-01-25T00:08:20.798Z,22.50
2023-01-25T00:09:20.976Z,19.10
2023-01-25T00:10:20.849Z,20.90
2023-01-25T00:11:20.848Z,21.90
2023-01-25T00:12:20.853Z,20.50
2023-01-25T00:13:20.846Z,23.00
2023-01-25T00:14:20.820Z,22.70
2023-01-25T00:15:20.951Z,20.60
2023-01-25T00:16:20.915Z,22.30
2023-01-25T00:17:20.784Z,22.10
2023-01-25T00:18:20.764Z,21.80
2023-01-25T00:19:20.739Z,22.60
2023-01-25T00:20:20.570Z,21.50
2023-01-25T00:21:20.821Z,21.10
2023-01-25T00:22:20.794Z,21.90
2023-01-25T00:23:20.761Z,23.40
2023-01-25T00:24:20.787Z,24.20
2023-01-25T00:25:20.810Z,22.50
2023-01-25T00:26:20.703Z,24.40
2023-01-25T00:27:20.767Z,24.00
2023-01-25T00:28:20.731Z,22.70
2023-01-25T00:29:20.709Z,23.90
2023-01-25T00:30:20.666Z,23.60
2023-01-25T00:31:20.581Z,25.30
2023-01-25T00:32:20.775Z,24.30
2023-01-25T00:33:20.666Z,25.00
2023-01-25T00:34:20.646Z,25.20
2023-01-25T00:35:20.712Z,24.60
2023-01-25T00:36:20.699Z,24.10
2023-01-25T00:37:20.614Z,22.10
2023-01-25T00:38:20.608Z,22.60
2023-01-25T00:39:20.593Z,26.10
2023-01-25T00:40:20.585Z,23.30
2023-01-25T00:41:20.657Z,23.20
2023-01-25T00:42:20.562Z,21.70
2023-01-25T00:43:20.627Z,23.50
2023-01-25T00:44:20.594Z,22.30
2023-01-25T00:45:20.573Z,23.40
2023-01-25T00:46:20.466Z,22.30
2023-01-25T00:47:20.342Z,23.40
2023-01-25T00:48:20.510Z,25.70
2023-01-25T00:49:20.487Z,25.40
2023-01-25T00:50:20.545Z,27.40
2023-01-25T00:51:20.599Z,25.50
2023-01-25T00:52:20.497Z,25.50
2023-01-25T00:53:20.468Z,23.30
2023-01-25T00:54:20.509Z,23.20
2023-01-25T00:55:20.481Z,25.80
2023-01-25T00:56:20.456Z,25.90
2023-01-25T00:57:20.517Z,25.70
2023-01-25T00:58:20.431Z,27.00
2023-01-25T00:59:20.409Z,27.00
2023-01-25T01:00:20.240Z,26.80
2023-01-25T01:01:20.291Z,27.50
2023-01-25T01:02:20.475Z,28.30
2023-01-25T01:03:20.418Z,27.60
2023-01-25T01:04:20.420Z,27.30
2023-01-25T01:05:20.371Z,25.10
2023-01-25T01:06:20.180Z,26.70
2023-01-25T01:07:20.366Z,27.00
2023-01-25T01:08:20.432Z,28.10
2023-01-25T01:09:20.329Z,26.80
2023-01-25T01:10:20.302Z,27.20
2023-01-25T01:11:20.388Z,27.10
2023-01-25T01:12:20.315Z,28.40
2023-01-25T01:13:20.396Z,27.50
2023-01-25T01:14:20.134Z,28.40
2023-01-25T01:15:20.300Z,29.20
2023-01-25T01:16:20.345Z,29.20
2023-01-25T01:17:20.257Z,28.30
2023-01-25T01:18:20.254Z,28.40
2023-01-25T01:19:20.319Z,30.70
2023-01-25T01:20:20.208Z,29.20
2023-01-25T01:21:20.274Z,29.60
2023-01-25T01:22:20.338Z,29.00
2023-01-25T01:23:20.227Z,30.50
2023-01-25T01:24:20.248Z,29.60
2023-01-25T01:25:20.199Z,27.90
2023-01-25T01:26:20.165Z,29.80
2023-01-25T01:27:20.228Z,27.40
2023-01-25T01:28:20.284Z,24.60
2023-01-25T01:29:20.177Z,28.40
2023-01-25T01:30:20.164Z,26.70
2023-01-25T01:31:20.216Z,27.90
2023-01-25T01:32:20.273Z,26.10
2023-01-25T01:33:20.223Z,29.50
2023-01-25T01:34:20.133Z,26.70
2023-01-25T01:35:20.117Z,29.40
2023-01-25T01:36:20.182Z,28.00
2023-01-25T01:37:20.088Z,29.40
2023-01-25T01:38:20.147Z,29.90
2023-01-25T01:39:20.044Z,27.40
2023-01-25T01:40:20.117Z,28.80
2023-01-25T01:41:20.109Z,30.30
2023-01-25T01:42:20.148Z,31.40
2023-01-25T01:43:20.045Z,34.00
2023-01-25T01:44:20.031Z,32.10
2023-01-25T01:45:20.048Z,32.70
2023-01-25T01:46:20.032Z,34.70
2023-01-25T01:47:20.077Z,33.50
2023-01-25T01:48:19.959Z,33.60
2023-01-25T01:49:19.790Z,34.90
2023-01-25T01:50:19.878Z,32.40
2023-01-25T01:51:19.974Z,28.20
2023-01-25T01:52:19.953Z,25.10
2023-01-25T01:53:20.001Z,29.10
2023-01-25T01:54:19.880Z,29.20
2023-01-25T01:55:19.743Z,27.50
2023-01-25T01:56:19.997Z,31.10
2023-01-25T01:57:19.856Z,30.70
2023-01-25T01:58:19.981Z,29.50
2023-01-25T01:59:19.919Z,27.50
2023-01-25T02:00:19.814Z,32.50
2023-01-25T02:01:19.878Z,29.10
2023-01-25T02:02:20.018Z,28.10
2023-01-25T02:03:19.771Z,28.90
2023-01-25T02:04:19.773Z,28.50
2023-01-25T02:05:19.792Z,29.10
2023-01-25T02:06:19.796Z,30.60
2023-01-25T02:07:19.810Z,27.80
2023-01-25T02:08:19.648Z,27.70
2023-01-25T02:09:19.856Z,27.40
2023-01-25T02:10:19.795Z,27.10
2023-01-25T02:11:19.786Z,26.80
2023-01-25T02:12:19.798Z,30.00
2023-01-25T02:13:19.798Z,29.30
2023-01-25T02:14:19.848Z,30.70
2023-01-25T02:15:19.667Z,31.70
2023-01-25T02:16:19.807Z,30.50
2023-01-25T02:17:19.741Z,31.70
2023-01-25T02:18:19.742Z,29.90
2023-01-25T02:19:19.811Z,31.00
2023-01-25T02:20:19.499Z,30.60
2023-01-25T02:21:19.709Z,31.10
2023-01-25T02:22:19.688Z,29.90
2023-01-25T02:23:19.675Z,28.60
2023-01-25T02:24:19.610Z,28.60
2023-01-25T02:25:19.744Z,28.40
2023-01-25T02:26:19.634Z,31.10
2023-01-25T02:27:19.619Z,28.80
2023-01-25T02:28:19.619Z,26.60
2023-01-25T02:29:19.618Z,28.40
2023-01-25T02:30:19.682Z,28.90
2023-01-25T02:31:19.716Z,28.00
2023-01-25T02:32:19.383Z,27.20
2023-01-25T02:33:19.598Z,29.20
2023-01-25T02:34:19.593Z,30.80
2023-01-25T02:35:19.678Z,29.30
2023-01-25T02:36:19.601Z,28.60
2023-01-25T02:37:19.661Z,29.20
2023-01-25T02:38:19.567Z,30.30
2023-01-25T02:39:20.578Z,28.20
2023-01-25T02:40:19.543Z,26.00
2023-01-25T02:41:19.557Z,26.80
2023-01-25T02:42:19.542Z,27.00
2023-01-25T02:43:19.516Z,26.80
2023-01-25T02:44:19.500Z,26.30
2023-01-25T02:45:19.488Z,26.20
2023-01-25T02:46:19.618Z,24.00
2023-01-25T02:47:19.546Z,24.70
2023-01-25T02:48:19.458Z,23.70
2023-01-25T02:49:19.290Z,25.40
2023-01-25T02:50:19.214Z,27.60
2023-01-25T02:51:19.482Z,24.30
2023-01-25T02:52:19.391Z,23.90
2023-01-25T02:53:19.373Z,26.20
2023-01-25T02:54:19.428Z,25.90
2023-01-25T02:55:19.402Z,27.70
2023-01-25T02:56:19.465Z,26.80
2023-01-25T02:57:21.134Z,27.30
2023-01-25T02:58:19.271Z,23.80
2023-01-25T02:59:19.332Z,24.80
2023-01-25T03:00:19.230Z,26.00
2023-01-25T03:01:19.327Z,25.50
2023-01-25T03:02:19.426Z,24.30
2023-01-25T03:03:19.325Z,24.40
2023-01-25T03:04:19.091Z,23.70
2023-01-25T03:05:19.358Z,26.00
2023-01-25T03:06:19.308Z,24.60
2023-01-25T03:07:19.276Z,25.40
2023-01-25T03:08:19.256Z,26.00
2023-01-25T03:09:19.347Z,27.10
2023-01-25T03:10:19.274Z,25.60
2023-01-25T03:11:19.269Z,26.10
2023-01-25T03:12:19.209Z,26.60
2023-01-25T03:13:19.210Z,27.30
2023-01-25T03:14:19.270Z,26.20
2023-01-25T03:15:19.254Z,24.40
2023-01-25T03:16:19.286Z,26.00
2023-01-25T03:17:19.163Z,25.40
2023-01-25T03:18:19.211Z,26.50
2023-01-25T03:19:19.259Z,27.50
2023-01-25T03:20:19.233Z,26.20
2023-01-25T03:21:19.128Z,26.20
2023-01-25T03:22:19.104Z,28.00
2023-01-25T03:23:19.167Z,26.50
2023-01-25T03:24:19.248Z,28.20
2023-01-25T03:25:18.910Z,25.90
2023-01-25T03:26:19.084Z,28.70
2023-01-25T03:27:18.998Z,29.60
2023-01-25T03:28:19.109Z,31.60
2023-01-25T03:29:18.902Z,28.40
2023-01-25T03:30:19.067Z,30.30
2023-01-25T03:31:19.128Z,28.20
2023-01-25T03:32:19.136Z,28.60
2023-01-25T03:33:19.027Z,29.00
2023-01-25T03:34:19.003Z,27.60
2023-01-25T03:35:18.985Z,27.70
2023-01-25T03:36:18.914Z,26.50
2023-01-25T03:37:19.054Z,28.90
2023-01-25T03:38:18.971Z,25.80
2023-01-25T03:39:18.970Z,26.70
2023-01-25T03:40:18.960Z,26.70
2023-01-25T03:41:18.944Z,29.50
2023-01-25T03:42:19.025Z,29.40
2023-01-25T03:43:18.973Z,30.40
2023-01-25T03:44:18.914Z,29.30
2023-01-25T03:45:18.914Z,29.60
2023-01-25T03:46:18.917Z,29.80
2023-01-25T03:47:19.000Z,30.30
2023-01-25T03:48:19.006Z,31.70
2023-01-25T03:49:18.931Z,32.00
2023-01-25T03:50:18.909Z,28.40
2023-01-25T03:51:18.892Z,30.30
2023-01-25T03:52:18.900Z,32.20
2023-01-25T03:53:18.823Z,26.70
2023-01-25T03:54:18.893Z,28.00
2023-01-25T03:55:18.875Z,28.60
2023-01-25T03:56:18.863Z,28.40
2023-01-25T03:57:18.849Z,27.00
2023-01-25T03:58:18.832Z,26.50
2023-01-25T03:59:18.896Z,25.20
2023-01-25T04:00:18.693Z,24.50
2023-01-25T04:01:18.759Z,25.70
2023-01-25T04:02:18.734Z,26.60
2023-01-25T04:03:18.745Z,24.40
2023-01-25T04:04:18.785Z,21.20
2023-01-25T04:05:18.764Z,21.60
2023-01-25T04:06:18.568Z,22.50
2023-01-25T04:07:18.712Z,21.50
2023-01-25T04:08:18.715Z,23.90
2023-01-25T04:09:18.725Z,23.50
2023-01-25T04:10:18.664Z,23.60
2023-01-25T04:11:18.661Z,19.80
2023-01-25T04:12:18.678Z,19.60
2023-01-25T04:13:18.601Z,18.90
2023-01-25T04:14:28.395Z,19.80
2023-01-25T04:15:18.680Z,20.00
2023-01-25T04:16:18.619Z,20.60
2023-01-25T04:17:18.599Z,21.50
2023-01-25T04:18:18.611Z,22.30
2023-01-25T04:19:18.627Z,19.60
2023-01-25T04:20:18.710Z,20.60
2023-01-25T04:21:18.663Z,18.80
2023-01-25T04:22:18.614Z,19.10
2023-01-25T04:23:18.597Z,17.80
2023-01-25T04:24:18.566Z,17.90
2023-01-25T04:25:18.417Z,20.20
2023-01-25T04:26:18.533Z,18.50
2023-01-25T04:27:18.549Z,19.20
2023-01-25T04:28:18.570Z,19.00
2023-01-25T04:29:19.492Z,20.20
2023-01-25T04:30:18.395Z,19.60
2023-01-25T04:31:18.713Z,19.60
2023-01-25T04:32:18.710Z,19.70
2023-01-25T04:33:18.311Z,19.80
2023-01-25T04:34:18.371Z,19.20
2023-01-25T04:35:18.416Z,17.50
2023-01-25T04:36:18.316Z,18.70
2023-01-25T04:37:18.545Z,18.80
2023-01-25T04:38:18.455Z,20.80
2023-01-25T04:39:18.453Z,18.80
2023-01-25T04:40:18.202Z,21.80
2023-01-25T04:41:18.402Z,22.60
2023-01-25T04:42:18.481Z,20.90
2023-01-25T04:43:18.417Z,21.30
2023-01-25T04:44:18.423Z,21.90
2023-01-25T04:45:18.423Z,22.40
2023-01-25T04:46:18.399Z,22.00
2023-01-25T04:47:18.191Z,23.20
2023-01-25T04:48:18.378Z,21.10
2023-01-25T04:49:18.370Z,24.30
2023-01-25T04:50:18.131Z,22.40
2023-01-25T04:51:18.355Z,23.30
2023-01-25T04:52:18.344Z,23.20
2023-01-25T04:53:18.424Z,21.00
2023-01-25T04:54:18.088Z,20.90
2023-01-25T04:55:18.260Z,20.00
2023-01-25T04:56:18.076Z,20.00
2023-01-25T04:57:18.184Z,20.20
2023-01-25T04:58:18.352Z,21.00
2023-01-25T04:59:18.229Z,21.00
2023-01-25T05:00:18.026Z,24.40
2023-01-25T05:01:18.273Z,25.00
2023-01-25T05:02:18.171Z,23.30
2023-01-25T05:03:18.245Z,23.60
2023-01-25T05:04:18.270Z,24.10
2023-01-25T05:05:18.291Z,23.20
2023-01-25T05:06:18.151Z,21.70
2023-01-25T05:07:18.160Z,19.70
2023-01-25T05:08:18.241Z,22.90
2023-01-25T05:09:18.157Z,21.80
2023-01-25T05:10:18.081Z,20.80
2023-01-25T05:11:18.186Z,19.80
2023-01-25T05:12:18.074Z,20.20
2023-01-25T05:13:18.085Z,20.00
2023-01-25T05:14:18.023Z,21.40
2023-01-25T05:15:18.116Z,19.40
2023-01-25T05:16:18.062Z,18.00
2023-01-25T05:17:18.018Z,19.50
2023-01-25T05:18:18.111Z,18.80
2023-01-25T05:19:18.178Z,19.70
2023-01-25T05:20:18.043Z,20.50
2023-01-25T05:21:18.036Z,19.90
2023-01-25T05:22:18.038Z,21.60
2023-01-25T05:23:18.001Z,22.10
2023-01-25T05:24:18.173Z,20.30
2023-01-25T05:25:17.998Z,22.90
2023-01-25T05:26:17.991Z,20.10
2023-01-25T05:27:17.991Z,21.50
2023-01-25T05:28:17.778Z,19.00
2023-01-25T05:29:17.970Z,17.80
2023-01-25T05:30:17.970Z,17.40
2023-01-25T05:31:17.933Z,19.20
2023-01-25T05:32:17.907Z,20.20
2023-01-25T05:33:18.003Z,18.80
2023-01-25T05:34:17.759Z,18.00
2023-01-25T05:35:17.884Z,19.50
2023-01-25T05:36:17.893Z,19.40
2023-01-25T05:37:17.916Z,18.90
2023-01-25T05:38:17.851Z,18.70
2023-01-25T05:39:17.882Z,20.00
2023-01-25T05:40:17.718Z,19.00
2023-01-25T05:41:17.632Z,19.50
2023-01-25T05:42:17.643Z,20.20
2023-01-25T05:43:17.903Z,21.20
2023-01-25T05:44:17.624Z,20.90
2023-01-25T05:45:17.871Z,23.40
2023-01-25T05:46:17.847Z,21.90
2023-01-25T05:47:17.906Z,24.40
2023-01-25T05:48:17.781Z,22.50
2023-01-25T05:49:17.582Z,20.70
2023-01-25T05:50:17.499Z,21.60
2023-01-25T05:51:17.808Z,19.60
2023-01-25T05:52:17.575Z,17.90
2023-01-25T05:53:17.675Z,19.90
2023-01-25T05:54:17.525Z,19.10
2023-01-25T05:55:17.682Z,18.80
2023-01-25T05:56:17.752Z,18.80
2023-01-25T05:57:17.492Z,18.70
2023-01-25T05:58:17.715Z,19.20
2023-01-25T05:59:17.569Z,19.60
2023-01-25T06:00:17.769Z,20.00
2023-01-25T06:01:17.499Z,21.40
2023-01-25T06:02:17.773Z,20.70
2023-01-25T06:03:17.597Z,16.50
2023-01-25T06:04:17.610Z,17.50
2023-01-25T06:05:17.687Z,16.50
2023-01-25T06:06:17.542Z,15.40
2023-01-25T06:07:17.459Z,16.20
2023-01-25T06:08:17.516Z,17.00
2023-01-25T06:09:17.397Z,17.70
2023-01-25T06:10:17.622Z,18.00
2023-01-25T06:11:17.573Z,18.60
2023-01-25T06:12:17.546Z,19.30
2023-01-25T06:13:17.373Z,17.00
2023-01-25T06:14:17.497Z,19.60
2023-01-25T06:15:17.626Z,16.90
2023-01-25T06:16:17.451Z,18.20
2023-01-25T06:17:17.416Z,18.80
2023-01-25T06:18:17.406Z,18.60
2023-01-25T06:19:17.392Z,18.70
2023-01-25T06:20:17.388Z,16.20
2023-01-25T06:21:17.547Z,18.40
2023-01-25T06:22:17.406Z,18.80
2023-01-25T06:23:17.431Z,18.10
2023-01-25T06:24:17.503Z,18.00
2023-01-25T06:25:17.459Z,17.00
2023-01-25T06:26:17.489Z,16.60
2023-01-25T06:27:17.359Z,18.00
2023-01-25T06:28:17.374Z,17.70
2023-01-25T06:29:17.390Z,18.60
2023-01-25T06:30:17.243Z,19.30
2023-01-25T06:31:17.574Z,18.40
2023-01-25T06:32:17.348Z,19.20
2023-01-25T06:33:17.333Z,18.30
2023-01-25T06:34:17.217Z,18.60
2023-01-25T06:35:17.155Z,18.80
2023-01-25T06:36:17.160Z,18.20
2023-01-25T06:37:17.192Z,19.40
2023-01-25T06:38:17.142Z,18.20
2023-01-25T06:39:17.274Z,19.40
2023-01-25T06:40:17.036Z,20.00
2023-01-25T06:41:17.024Z,19.10
2023-01-25T06:42:17.027Z,17.30
2023-01-25T06:43:17.062Z,19.40
2023-01-25T06:44:17.049Z,20.00
2023-01-25T06:45:17.066Z,21.30
2023-01-25T06:46:17.023Z,18.50
2023-01-25T06:47:17.042Z,19.50
2023-01-25T06:48:17.214Z,19.50
2023-01-25T06:49:17.206Z,19.40
2023-01-25T06:50:17.275Z,18.30
2023-01-25T06:51:16.952Z,16.70
2023-01-25T06:52:17.159Z,19.60
2023-01-25T06:53:17.177Z,17.30
2023-01-25T06:54:17.186Z,18.30
2023-01-25T06:55:17.124Z,16.80
2023-01-25T06:56:17.144Z,17.20
2023-01-25T06:57:17.055Z,14.90
2023-01-25T06:58:17.109Z,17.40
2023-01-25T06:59:17.171Z,17.30
2023-01-25T07:00:16.984Z,16.60
2023-01-25T07:01:17.119Z,16.80
2023-01-25T07:02:17.023Z,16.40
2023-01-25T07:03:17.029Z,16.10
2023-01-25T07:04:17.134Z,16.30
2023-01-25T07:05:16.982Z,16.70
2023-01-25T07:06:17.000Z,17.00
2023-01-25T07:07:16.949Z,17.80
2023-01-25T07:08:16.912Z,17.60
2023-01-25T07:09:16.984Z,16.00
2023-01-25T07:10:16.974Z,14.90
2023-01-25T07:11:16.899Z,16.10
2023-01-25T07:12:16.904Z,16.40
2023-01-25T07:13:16.912Z,15.10
2023-01-25T07:14:16.930Z,17.00
2023-01-25T07:15:16.923Z,15.90
2023-01-25T07:16:16.983Z,14.90
2023-01-25T07:17:16.969Z,16.10
2023-01-25T07:18:16.922Z,15.90
2023-01-25T07:19:16.874Z,16.00
2023-01-25T07:20:16.933Z,15.50
2023-01-25T07:21:16.862Z,15.90
2023-01-25T07:22:16.916Z,14.80
2023-01-25T07:23:16.839Z,15.00
2023-01-25T07:24:16.923Z,15.10
2023-01-25T07:25:16.660Z,16.00
2023-01-25T07:26:16.853Z,16.20
2023-01-25T07:27:16.780Z,17.10
2023-01-25T07:28:16.860Z,16.50
2023-01-25T07:29:16.879Z,16.00
2023-01-25T07:30:16.795Z,16.60
2023-01-25T07:31:16.816Z,17.40
2023-01-25T07:32:16.774Z,16.50
2023-01-25T07:33:16.760Z,16.40
2023-01-25T07:34:16.842Z,15.40
2023-01-25T07:35:16.750Z,16.20
2023-01-25T07:36:16.758Z,15.90
2023-01-25T07:37:16.832Z,17.00
2023-01-25T07:38:16.702Z,16.80
2023-01-25T07:39:16.697Z,16.30
2023-01-25T07:40:16.719Z,16.00
2023-01-25T07:41:16.712Z,14.80
2023-01-25T07:42:16.722Z,17.40
2023-01-25T07:43:16.722Z,15.70
2023-01-25T07:44:16.636Z,15.90
2023-01-25T07:45:16.626Z,16.40
2023-01-25T07:46:16.623Z,16.50
2023-01-25T07:47:16.617Z,16.90
2023-01-25T07:48:16.617Z,19.00
2023-01-25T07:49:16.593Z,18.80
2023-01-25T07:50:16.602Z,18.10
2023-01-25T07:51:16.588Z,17.20
2023-01-25T07:52:16.731Z,17.90
2023-01-25T07:53:16.573Z,18.40
2023-01-25T07:54:16.575Z,18.10
2023-01-25T07:55:16.586Z,16.90
2023-01-25T07:56:16.515Z,17.70
2023-01-25T07:57:16.529Z,17.30
2023-01-25T07:58:16.635Z,17.40
2023-01-25T07:59:16.561Z,18.90
2023-01-25T08:00:16.504Z,18.50
2023-01-25T08:01:16.520Z,18.30
2023-01-25T08:02:16.514Z,16.60
2023-01-25T08:03:16.514Z,16.70
2023-01-25T08:04:16.444Z,15.40
2023-01-25T08:05:16.546Z,18.20
2023-01-25T08:06:16.485Z,17.80
2023-01-25T08:07:16.267Z,18.30
2023-01-25T08:08:16.328Z,18.00
2023-01-25T08:09:16.334Z,17.40
2023-01-25T08:10:16.500Z,18.70
2023-01-25T08:11:16.343Z,18.20
2023-01-25T08:12:16.505Z,18.00
2023-01-25T08:13:16.189Z,19.00
2023-01-25T08:14:16.486Z,17.80
2023-01-25T08:15:16.343Z,18.70
2023-01-25T08:16:16.350Z,18.60
2023-01-25T08:17:16.353Z,19.70
2023-01-25T08:18:16.365Z,19.90
2023-01-25T08:19:16.375Z,19.90
2023-01-25T08:20:16.378Z,18.50
2023-01-25T08:21:16.260Z,20.00
2023-01-25T08:22:16.255Z,20.10
2023-01-25T08:23:16.374Z,20.70
2023-01-25T08:24:17.316Z,18.60
2023-01-25T08:25:16.237Z,19.00
2023-01-25T08:26:16.078Z,18.60
2023-01-25T08:27:16.038Z,18.20
2023-01-25T08:28:16.024Z,18.70
2023-01-25T08:29:16.011Z,18.80
2023-01-25T08:30:16.061Z,18.70
2023-01-25T08:31:16.075Z,21.10
2023-01-25T08:32:16.089Z,18.60
2023-01-25T08:33:16.047Z,18.00
2023-01-25T08:34:16.144Z,18.90
2023-01-25T08:35:16.039Z,18.30
2023-01-25T08:36:16.023Z,19.40
2023-01-25T08:37:15.980Z,18.10
2023-01-25T08:38:16.182Z,17.90
2023-01-25T08:39:16.165Z,20.30
2023-01-25T08:40:16.144Z,18.90
2023-01-25T08:41:16.113Z,18.60
2023-01-25T08:42:16.090Z,17.40
2023-01-25T08:43:15.995Z,19.10
2023-01-25T08:44:16.014Z,19.50
2023-01-25T08:45:15.989Z,19.30
2023-01-25T08:46:15.984Z,17.20
2023-01-25T08:47:15.990Z,18.10
2023-01-25T08:48:16.121Z,17.80
2023-01-25T08:49:15.946Z,16.40
2023-01-25T08:50:15.919Z,17.30
2023-01-25T08:51:15.902Z,16.20
2023-01-25T08:52:16.048Z,17.40
2023-01-25T08:53:16.027Z,17.20
2023-01-25T08:54:15.997Z,17.40
2023-01-25T08:55:15.818Z,17.40
2023-01-25T08:56:15.950Z,16.40
2023-01-25T08:57:15.922Z,17.80
2023-01-25T08:58:15.816Z,16.80
2023-01-25T08:59:15.946Z,18.60
2023-01-25T09:00:15.916Z,18.50
2023-01-25T09:01:15.727Z,20.30
2023-01-25T09:02:16.017Z,19.00
2023-01-25T09:03:15.859Z,18.40
2023-01-25T09:04:15.883Z,17.80
2023-01-25T09:05:15.806Z,20.00
2023-01-25T09:06:15.861Z,18.70
2023-01-25T09:07:15.799Z,18.10
2023-01-25T09:08:15.820Z,19.00
2023-01-25T09:09:15.751Z,18.00
2023-01-25T09:10:15.836Z,19.40
2023-01-25T09:11:15.741Z,18.60
2023-01-25T09:12:15.817Z,18.90
2023-01-25T09:13:15.736Z,19.10
2023-01-25T09:14:15.715Z,20.60
2023-01-25T09:15:15.700Z,18.80
2023-01-25T09:16:15.695Z,20.00
2023-01-25T09:17:15.767Z,20.70
2023-01-25T09:18:15.809Z,19.90
2023-01-25T09:19:15.716Z,19.90
2023-01-25T09:20:15.699Z,20.80
2023-01-25T09:21:15.699Z,18.30
2023-01-25T09:22:15.739Z,19.10
2023-01-25T09:23:15.637Z,21.60
2023-01-25T09:24:15.647Z,18.40
2023-01-25T09:25:15.488Z,20.00
2023-01-25T09:26:15.647Z,18.80
2023-01-25T09:27:15.609Z,21.60
2023-01-25T09:28:15.584Z,19.50
2023-01-25T09:29:15.486Z,19.10
2023-01-25T09:30:18.819Z,20.60
2023-01-25T09:31:22.172Z,20.20
2023-01-25T09:32:15.622Z,21.80
2023-01-25T09:33:15.629Z,21.60
2023-01-25T09:34:15.503Z,21.20
2023-01-25T09:35:15.494Z,19.90
2023-01-25T09:36:15.759Z,20.20
2023-01-25T09:37:15.472Z,22.50
2023-01-25T09:38:15.585Z,19.70
2023-01-25T09:39:15.602Z,20.20
2023-01-25T09:40:15.448Z,20.80
2023-01-25T09:41:15.423Z,22.20
2023-01-25T09:42:15.758Z,19.80
2023-01-25T09:43:15.514Z,21.70
2023-01-25T09:44:15.499Z,21.40
2023-01-25T09:45:15.521Z,21.70
2023-01-25T09:46:15.414Z,22.10
2023-01-25T09:47:15.416Z,20.70
2023-01-25T09:48:15.238Z,23.30
2023-01-25T09:49:15.234Z,21.30
2023-01-25T09:50:15.226Z,20.10
2023-01-25T09:51:15.201Z,21.40
2023-01-25T09:52:15.196Z,18.50
2023-01-25T09:53:15.158Z,18.80
2023-01-25T09:54:16.868Z,19.40
2023-01-25T09:55:15.312Z,18.20
2023-01-25T09:56:15.431Z,19.40
2023-01-25T09:57:15.242Z,20.60
2023-01-25T09:58:15.205Z,22.70
2023-01-25T09:59:15.272Z,19.60
2023-01-25T10:00:15.296Z,20.20
2023-01-25T10:01:15.668Z,19.60
2023-01-25T10:02:15.256Z,19.30
2023-01-25T10:03:15.306Z,19.60
2023-01-25T10:04:15.188Z,19.90
2023-01-25T10:05:15.124Z,21.00
2023-01-25T10:06:15.302Z,20.90
2023-01-25T10:07:15.154Z,21.60
2023-01-25T10:08:15.164Z,22.30
2023-01-25T10:09:15.994Z,22.60
2023-01-25T10:10:15.001Z,20.70
2023-01-25T10:11:14.981Z,20.10
2023-01-25T10:12:15.035Z,18.60
2023-01-25T10:13:14.962Z,20.30
2023-01-25T10:14:14.966Z,20.70
2023-01-25T10:15:14.937Z,19.40
2023-01-25T10:16:24.629Z,18.00
2023-01-25T10:17:15.102Z,20.20
2023-01-25T10:18:14.938Z,20.40
2023-01-25T10:19:14.914Z,18.90
2023-01-25T10:20:14.917Z,18.70
2023-01-25T10:21:15.100Z,20.60
2023-01-25T10:22:15.014Z,19.90
2023-01-25T10:23:15.096Z,20.80
2023-01-25T10:24:15.147Z,18.50
2023-01-25T10:25:15.087Z,19.30
2023-01-25T10:26:14.836Z,19.30
2023-01-25T10:27:14.888Z,18.30
2023-01-25T10:28:15.073Z,19.50
2023-01-25T10:29:14.984Z,18.30
2023-01-25T10:30:15.049Z,19.70
2023-01-25T10:31:15.081Z,19.70
2023-01-25T10:32:15.078Z,18.80
2023-01-25T10:33:14.934Z,20.20
2023-01-25T10:34:14.815Z,22.20
2023-01-25T10:35:20.058Z,18.50
2023-01-25T10:36:14.928Z,18.90
2023-01-25T10:37:14.698Z,19.50
2023-01-25T10:38:14.921Z,20.60
2023-01-25T10:39:14.869Z,20.20
2023-01-25T10:40:14.863Z,18.50
2023-01-25T10:41:14.744Z,20.00
2023-01-25T10:42:14.704Z,19.30
2023-01-25T10:43:14.832Z,19.20
2023-01-25T10:44:14.714Z,19.00
2023-01-25T10:45:14.687Z,20.20
2023-01-25T10:46:14.828Z,20.20
2023-01-25T10:47:14.842Z,20.60
2023-01-25T10:48:14.784Z,22.20
2023-01-25T10:49:14.795Z,21.80
2023-01-25T10:50:14.675Z,18.20
2023-01-25T10:51:14.707Z,22.00
2023-01-25T10:52:14.669Z,21.10
2023-01-25T10:53:14.744Z,21.70
2023-01-25T10:54:14.680Z,21.10
2023-01-25T10:55:14.778Z,19.60
2023-01-25T10:56:14.543Z,22.00
2023-01-25T10:57:14.666Z,21.50
2023-01-25T10:58:14.680Z,22.50
2023-01-25T10:59:14.703Z,21.70
2023-01-25T11:00:14.573Z,21.90
2023-01-25T11:01:14.514Z,21.60
2023-01-25T11:02:14.681Z,22.90
2023-01-25T11:03:14.643Z,22.20
2023-01-25T11:04:14.621Z,22.90
2023-01-25T11:05:14.754Z,24.90
2023-01-25T11:06:14.724Z,25.00
2023-01-25T11:07:14.423Z,23.70
2023-01-25T11:08:14.649Z,24.00
2023-01-25T11:09:14.593Z,24.90
2023-01-25T11:10:14.679Z,24.00
2023-01-25T11:11:14.500Z,25.30
2023-01-25T11:12:14.669Z,24.40
2023-01-25T11:13:14.536Z,26.40
2023-01-25T11:14:14.539Z,26.20
2023-01-25T11:15:14.555Z,24.30
2023-01-25T11:16:14.521Z,25.60
2023-01-25T11:17:14.523Z,27.20
2023-01-25T11:18:14.551Z,24.20
2023-01-25T11:19:14.481Z,26.30
2023-01-25T11:20:14.450Z,31.50
2023-01-25T11:21:15.123Z,29.90
2023-01-25T11:22:14.510Z,41.70
2023-01-25T11:23:14.441Z,83.00
2023-01-25T11:24:14.498Z,75.10
2023-01-25T11:25:14.301Z,70.70
2023-01-25T11:26:14.401Z,47.50
2023-01-25T11:27:14.497Z,34.70
2023-01-25T11:28:14.510Z,31.10
2023-01-25T11:29:14.351Z,32.00
2023-01-25T11:30:14.412Z,29.80
2023-01-25T11:31:14.581Z,49.70
2023-01-25T11:32:14.168Z,84.30
2023-01-25T11:33:14.340Z,81.80
2023-01-25T11:34:14.429Z,67.30
2023-01-25T11:35:14.444Z,31.60
2023-01-25T11:36:14.322Z,34.10
2023-01-25T11:37:14.297Z,37.80
2023-01-25T11:38:14.401Z,70.40
2023-01-25T11:39:14.246Z,47.80
2023-01-25T11:40:14.187Z,34.10
2023-01-25T11:41:14.271Z,30.20
2023-01-25T11:42:14.164Z,29.80
2023-01-25T11:43:14.242Z,30.00
2023-01-25T11:44:14.251Z,28.20
2023-01-25T11:45:14.262Z,32.30
2023-01-25T11:46:14.320Z,31.90
2023-01-25T11:47:14.082Z,30.50
2023-01-25T11:48:14.006Z,26.40
2023-01-25T11:49:14.120Z,26.30
2023-01-25T11:50:14.076Z,31.40
2023-01-25T11:51:14.021Z,30.10
2023-01-25T11:52:14.091Z,30.90
2023-01-25T11:53:14.140Z,30.30
2023-01-25T11:54:14.117Z,32.10
2023-01-25T11:55:14.097Z,29.70
2023-01-25T11:56:14.072Z,29.50
2023-01-25T11:57:14.210Z,32.80
2023-01-25T11:58:13.964Z,30.60
2023-01-25T11:59:14.084Z,30.40
2023-01-25T12:00:14.066Z,27.00
2023-01-25T12:01:14.050Z,24.70
2023-01-25T12:02:14.058Z,27.60
2023-01-25T12:03:16.723Z,29.20
2023-01-25T12:04:14.076Z,30.00
2023-01-25T12:05:21.550Z,28.90
2023-01-25T12:06:14.109Z,32.80
2023-01-25T12:07:13.890Z,29.00
2023-01-25T12:08:13.907Z,32.20
2023-01-25T12:09:14.088Z,34.10
2023-01-25T12:10:13.936Z,30.60
2023-01-25T12:11:13.943Z,29.50
2023-01-25T12:12:13.954Z,28.80
2023-01-25T12:13:13.913Z,27.20
2023-01-25T12:14:13.848Z,29.70
2023-01-25T12:15:13.835Z,29.10
2023-01-25T12:16:13.909Z,29.40
2023-01-25T12:17:13.867Z,31.70
2023-01-25T12:18:13.874Z,29.70
2023-01-25T12:19:13.896Z,27.50
2023-01-25T12:20:13.818Z,26.40
2023-01-25T12:21:22.969Z,27.70
2023-01-25T12:22:13.785Z,27.60
2023-01-25T12:23:13.781Z,27.10
2023-01-25T12:24:13.880Z,25.30
2023-01-25T12:25:13.757Z,26.10
2023-01-25T12:26:13.765Z,28.20
2023-01-25T12:27:13.826Z,27.00
2023-01-25T12:28:13.740Z,27.00
2023-01-25T12:29:13.733Z,26.60
2023-01-25T12:30:13.772Z,28.20
2023-01-25T12:31:13.934Z,26.60
2023-01-25T12:32:13.752Z,27.20
2023-01-25T12:33:14.992Z,26.50
2023-01-25T12:34:13.687Z,25.10
2023-01-25T12:35:13.769Z,25.10
2023-01-25T12:36:13.767Z,30.50
2023-01-25T12:37:13.590Z,26.20
2023-01-25T12:38:13.655Z,26.80
2023-01-25T12:39:13.713Z,25.50
2023-01-25T12:40:13.725Z,25.80
2023-01-25T12:41:13.601Z,25.70
2023-01-25T12:42:13.660Z,28.80
2023-01-25T12:43:13.562Z,27.10
2023-01-25T12:44:13.548Z,27.40
2023-01-25T12:45:13.526Z,30.00
2023-01-25T12:46:13.520Z,28.80
2023-01-25T12:47:15.106Z,28.10
2023-01-25T12:48:13.527Z,26.40
2023-01-25T12:49:13.624Z,27.00
2023-01-25T12:50:13.642Z,27.90
2023-01-25T12:51:13.531Z,24.60
2023-01-25T12:52:13.458Z,28.80